Sea Cloud — 9HOM2 — position and weather

sailwx.info

Track history (hours):
 
Tides and Currents Weather Stations Pressure Air Temp Water Temp Dewpoint Dewpoint Depression Visibility Wind Speed Wind Dir Waves Ship Positions

Sea Cloud

Ship's website: http://www.seacloud.com/en/the-ships/sea-cloud.html

Last reported at 2019-Jul-09 23:58 UTC. Time now 2019-Jul-16 10:06 UTC.
Position N 44°51' E 012°51'.

Length 110 m; draft 5.3 m.

Type: Ship. MMSI: 256084000.

Date/timePositionNaut miles runAvg speedWind from/ knotsBaromVisibWave heightAir tempDewpointWater temp
2019-Jul-09 23:58N 44°51' E 012°51'6 7.3
2019-Jul-09 23:06N 44°56' E 012°58'1 7.6
2019-Jul-09 22:58N 44°57' E 012°59'4 7.5
2019-Jul-09 22:28N 44°59' E 013°02'4 7.7
2019-Jul-09 22:00N 45°02' E 013°05'4 8.1
2019-Jul-09 21:30N 45°06' E 013°04'4 7.3
2019-Jul-09 21:00N 45°10' E 013°03'4 7.3
2019-Jul-09 20:30N 45°13' E 013°02'4 7.6
2019-Jul-09 20:00N 45°17' E 013°01'4 7.4
2019-Jul-09 19:30N 45°21' E 012°60'4 8.1
2019-Jul-09 19:00N 45°25' E 012°60'5 9.9
2019-Jul-09 18:30N 45°26' E 013°07'5 9.7
2019-Jul-09 18:00N 45°27' E 013°13'5 9.6
2019-Jul-09 17:30N 45°28' E 013°20'5 9.5
2019-Jul-09 17:00N 45°30' E 013°26'5 9.0
2019-Jul-09 16:26N 45°31' E 013°33'0 0.2
2019-Jul-09 15:49N 45°31' E 013°33'0 0.0
2019-Jul-09 15:25N 45°31' E 013°33'0 0.0
2019-Jul-09 14:54N 45°31' E 013°33'0 0.0
2019-Jul-09 14:31N 45°31' E 013°33'0 0.0
2019-Jul-09 13:57N 45°31' E 013°33'0 0.0
2019-Jul-09 13:25N 45°31' E 013°33'0 0.0
2019-Jul-09 12:58N 45°31' E 013°33'0 0.0
2019-Jul-09 12:25N 45°31' E 013°33'0 0.0
2019-Jul-09 11:58N 45°31' E 013°33'0 0.0
2019-Jul-09 11:30N 45°31' E 013°33'0 0.2
2019-Jul-09 11:00N 45°31' E 013°33'3 6.9
2019-Jul-09 10:30N 45°32' E 013°29'3 6.4
2019-Jul-09 10:00N 45°34' E 013°25'1 2.1
2019-Jul-09 09:30N 45°35' E 013°26'1 1.9
2019-Jul-09 09:00N 45°36' E 013°27'1 1.6
2019-Jul-09 08:30N 45°36' E 013°28'1 1.7
2019-Jul-09 08:00N 45°37' E 013°29'1 2.6
2019-Jul-09 07:30N 45°37' E 013°31'2 3.3
2019-Jul-09 07:00N 45°38' E 013°33'2 4.0
2019-Jul-09 06:30N 45°36' E 013°34'4 7.4
2019-Jul-09 06:00N 45°34' E 013°29'4 7.6
2019-Jul-09 05:30N 45°32' E 013°24'4 7.5
2019-Jul-09 05:00N 45°30' E 013°20'4 7.1
2019-Jul-09 04:30N 45°30' E 013°15'3 6.5
2019-Jul-09 04:00N 45°30' E 013°10'1 1.2
2019-Jul-09 03:30N 45°31' E 013°10'3 6.3
2019-Jul-09 03:00N 45°28' E 013°09'3 5.9
2019-Jul-09 02:30N 45°25' E 013°06'4 7.4
2019-Jul-09 02:00N 45°22' E 013°07'4 7.7
2019-Jul-09 01:30N 45°18' E 013°09'4 7.5
2019-Jul-09 01:00N 45°14' E 013°10'4 7.3
2019-Jul-09 00:30N 45°10' E 013°11'3 6.4
2019-Jul-08 23:58N 45°07' E 013°09'3 6.8
2019-Jul-08 23:30N 45°05' E 013°05'4 7.3
2019-Jul-08 22:59N 45°08' E 013°02'4 7.5
2019-Jul-08 22:30N 45°11' E 013°00'4 8.1
2019-Jul-08 22:00N 45°15' E 012°60'4 8.1
2019-Jul-08 21:30N 45°20' E 012°60'4 8.2
2019-Jul-08 21:00N 45°24' E 013°00'3 5.6
2019-Jul-08 20:30N 45°26' E 012°58'4 7.0
2019-Jul-08 20:00N 45°25' E 012°53'3 6.4
2019-Jul-08 19:30N 45°24' E 012°49'3 7.0
2019-Jul-08 19:00N 45°23' E 012°44'3 7.0
2019-Jul-08 18:30N 45°22' E 012°39'3 6.8
2019-Jul-08 18:00N 45°22' E 012°34'3 6.4
2019-Jul-08 17:30N 45°23' E 012°30'3 6.9
2019-Jul-08 17:00N 45°25' E 012°26'3 5.7
2019-Jul-08 16:30N 45°25' E 012°22'2 4.4
2019-Jul-08 16:00N 45°26' E 012°19'0 0.0
2019-Jul-08 07:25N 45°26' E 012°19'0 0.0
2019-Jul-08 06:55N 45°26' E 012°19'0 0.0
2019-Jul-08 06:28N 45°26' E 012°19'0 0.0
2019-Jul-08 05:58N 45°26' E 012°19'0 0.0
2019-Jul-08 05:28N 45°26' E 012°19'0 0.0
2019-Jul-08 04:58N 45°26' E 012°19'0 0.0
2019-Jul-08 04:28N 45°26' E 012°19'0 0.1
2019-Jul-08 04:00N 45°26' E 012°19'1 1.8
2019-Jul-08 03:30N 45°26' E 012°20'2 3.8
2019-Jul-08 03:00N 45°26' E 012°23'3 6.9
2019-Jul-08 02:30N 45°25' E 012°27'2 4.9
2019-Jul-08 02:00N 45°24' E 012°31'1 2.3
2019-Jul-08 01:30N 45°23' E 012°32'3 5.7
2019-Jul-08 01:00N 45°21' E 012°32'4 7.5
2019-Jul-08 00:30N 45°17' E 012°32'4 7.8
2019-Jul-08 00:00N 45°14' E 012°36'4 7.9
2019-Jul-07 23:30N 45°12' E 012°41'2 3.6
2019-Jul-07 23:01N 45°11' E 012°43'4 8.2
2019-Jul-07 22:30N 45°08' E 012°47'4 8.1
2019-Jul-07 22:00N 45°04' E 012°50'4 8.1
2019-Jul-07 21:30N 45°01' E 012°52'4 7.5
2019-Jul-07 21:00N 44°57' E 012°52'4 8.1
2019-Jul-07 20:29N 44°53' E 012°48'9 7.7
2019-Jul-07 19:18N 44°46' E 012°40'2 7.7
2019-Jul-07 19:00N 44°45' E 012°38'4 8.4
2019-Jul-07 18:30N 44°42' E 012°34'14 6.9
2019-Jul-07 16:29N 44°30' E 012°23'24 1.6
2019-Jul-07 01:20N 44°24' E 012°56'3 7.4
2019-Jul-07 01:00N 44°23' E 012°59'6 7.1
2019-Jul-07 00:07N 44°20' E 013°07'8 6.9
2019-Jul-06 22:59N 44°16' E 013°16'10 7.5
2019-Jul-06 21:40N 44°10' E 013°27'1 7.9
2019-Jul-06 21:29N 44°09' E 013°28'8 8.0
2019-Jul-06 20:31N 44°04' E 013°37'0 7.9
2019-Jul-06 20:27N 44°04' E 013°37'5 7.8
2019-Jul-06 19:49N 44°01' E 013°43'7 8.0
2019-Jul-06 18:54N 43°56' E 013°51'4 9.4
2019-Jul-06 18:29N 43°53' E 013°49'5 9.8
2019-Jul-06 18:00N 43°49' E 013°46'6 9.8
2019-Jul-06 17:25N 43°44' E 013°42'5 9.4
2019-Jul-06 16:52N 43°40' E 013°36'3 9.1
2019-Jul-06 16:30N 43°39' E 013°32'2 4.8
2019-Jul-06 16:00N 43°37' E 013°30'4 0.3
2019-Jul-06 04:36N 43°40' E 013°33'8 3.6
2019-Jul-06 02:28N 43°46' E 013°40'1 0.8
2019-Jul-06 01:11N 43°47' E 013°39'1 2.6
2019-Jul-06 00:54N 43°47' E 013°40'3 7.4
2019-Jul-06 00:30N 43°48' E 013°44'7 7.2
2019-Jul-05 23:29N 43°53' E 013°51'6 7.1
2019-Jul-05 22:43N 43°58' E 013°56'4 6.7
2019-Jul-05 22:08N 44°00' E 013°59'1 6.7
2019-Jul-05 22:00N 44°01' E 014°00'4 6.7
2019-Jul-05 21:29N 44°03' E 014°04'6 7.2
2019-Jul-05 20:37N 44°07' E 014°11'3 7.0
2019-Jul-05 20:14N 44°10' E 014°09'9 7.3
2019-Jul-05 18:59N 44°18' E 014°04'4 7.2
2019-Jul-05 18:27N 44°21' E 014°01'3 7.3
2019-Jul-05 18:00N 44°24' E 013°60'4 7.3
2019-Jul-05 17:30N 44°28' E 013°58'4 7.3
2019-Jul-05 17:00N 44°31' E 013°55'4 7.4
2019-Jul-05 16:30N 44°35' E 013°53'4 7.6
2019-Jul-05 16:00N 44°38' E 013°51'4 7.6
2019-Jul-05 15:30N 44°41' E 013°49'1 1.8
2019-Jul-05 15:00N 44°42' E 013°48'2 3.4
2019-Jul-05 14:30N 44°43' E 013°47'2 3.5
2019-Jul-05 14:00N 44°45' E 013°45'2 3.4
2019-Jul-05 13:30N 44°46' E 013°44'2 3.3
2019-Jul-05 13:00N 44°47' E 013°42'2 4.5
2019-Jul-05 12:30N 44°49' E 013°42'5 9.4
2019-Jul-05 12:00N 44°53' E 013°47'3 5.6
2019-Jul-05 11:30N 44°53' E 013°51'0 0.5
2019-Jul-05 10:55N 44°52' E 013°51'0 0.0
2019-Jul-05 10:25N 44°52' E 013°51'0 0.0
2019-Jul-05 09:49N 44°52' E 013°51'0 0.0
2019-Jul-05 09:19N 44°52' E 013°51'0 0.0
2019-Jul-05 08:55N 44°52' E 013°51'0 0.0
2019-Jul-05 08:25N 44°52' E 013°51'0 0.0
2019-Jul-05 07:55N 44°52' E 013°51'0 0.0
2019-Jul-05 07:25N 44°52' E 013°51'0 0.0
2019-Jul-05 06:55N 44°52' E 013°51'0 0.0
2019-Jul-05 06:30N 44°52' E 013°51'1 1.2
2019-Jul-05 06:00N 44°52' E 013°50'3 5.7
2019-Jul-05 05:30N 44°53' E 013°46'4 7.4
2019-Jul-05 05:00N 44°51' E 013°42'4 7.3
2019-Jul-05 04:30N 44°49' E 013°38'3 5.5
2019-Jul-05 04:01N 44°46' E 013°39'4 7.3
2019-Jul-05 03:31N 44°43' E 013°42'4 7.4
2019-Jul-05 02:58N 44°40' E 013°46'7 7.1
2019-Jul-05 01:58N 44°35' E 013°53'3 6.9
2019-Jul-05 01:30N 44°33' E 013°57'3 6.8
2019-Jul-05 01:00N 44°31' E 014°01'6 6.8
2019-Jul-05 00:04N 44°28' E 014°08'1 7.0
2019-Jul-04 23:59N 44°28' E 014°09'  
2019-Jul-02 09:58N 43°14' E 016°16'15 2.9
2019-Jul-02 04:45N 43°00' E 016°23'  
Track history (hours):
 
Tides and Currents Weather Stations Pressure Air Temp Water Temp Dewpoint Dewpoint Depression Visibility Wind Speed Wind Dir Waves Ship Positions

Sea Cloud

Ship's website: http://www.seacloud.com/en/the-ships/sea-cloud.html

Last reported at 2019-Jul-09 23:58 UTC. Time now 2019-Jul-16 10:06 UTC.
Position N 44°51' E 012°51'.

Length 110 m; draft 5.3 m.

Type: Ship. MMSI: 256084000.

Date/timePositionNaut miles runAvg speedWind from/ knotsBaromVisibWave heightAir tempDewpointWater temp
2019-Jul-09 23:58N 44°51' E 012°51'6 7.3
2019-Jul-09 23:06N 44°56' E 012°58'1 7.6
2019-Jul-09 22:58N 44°57' E 012°59'4 7.5
2019-Jul-09 22:28N 44°59' E 013°02'4 7.7
2019-Jul-09 22:00N 45°02' E 013°05'4 8.1
2019-Jul-09 21:30N 45°06' E 013°04'4 7.3
2019-Jul-09 21:00N 45°10' E 013°03'4 7.3
2019-Jul-09 20:30N 45°13' E 013°02'4 7.6
2019-Jul-09 20:00N 45°17' E 013°01'4 7.4
2019-Jul-09 19:30N 45°21' E 012°60'4 8.1
2019-Jul-09 19:00N 45°25' E 012°60'5 9.9
2019-Jul-09 18:30N 45°26' E 013°07'5 9.7
2019-Jul-09 18:00N 45°27' E 013°13'5 9.6
2019-Jul-09 17:30N 45°28' E 013°20'5 9.5
2019-Jul-09 17:00N 45°30' E 013°26'5 9.0
2019-Jul-09 16:26N 45°31' E 013°33'0 0.2
2019-Jul-09 15:49N 45°31' E 013°33'0 0.0
2019-Jul-09 15:25N 45°31' E 013°33'0 0.0
2019-Jul-09 14:54N 45°31' E 013°33'0 0.0
2019-Jul-09 14:31N 45°31' E 013°33'0 0.0
2019-Jul-09 13:57N 45°31' E 013°33'0 0.0
2019-Jul-09 13:25N 45°31' E 013°33'0 0.0
2019-Jul-09 12:58N 45°31' E 013°33'0 0.0
2019-Jul-09 12:25N 45°31' E 013°33'0 0.0
2019-Jul-09 11:58N 45°31' E 013°33'0 0.0
2019-Jul-09 11:30N 45°31' E 013°33'0 0.2
2019-Jul-09 11:00N 45°31' E 013°33'3 6.9
2019-Jul-09 10:30N 45°32' E 013°29'3 6.4
2019-Jul-09 10:00N 45°34' E 013°25'1 2.1
2019-Jul-09 09:30N 45°35' E 013°26'1 1.9
2019-Jul-09 09:00N 45°36' E 013°27'1 1.6
2019-Jul-09 08:30N 45°36' E 013°28'1 1.7
2019-Jul-09 08:00N 45°37' E 013°29'1 2.6
2019-Jul-09 07:30N 45°37' E 013°31'2 3.3
2019-Jul-09 07:00N 45°38' E 013°33'2 4.0
2019-Jul-09 06:30N 45°36' E 013°34'4 7.4
2019-Jul-09 06:00N 45°34' E 013°29'4 7.6
2019-Jul-09 05:30N 45°32' E 013°24'4 7.5
2019-Jul-09 05:00N 45°30' E 013°20'4 7.1
2019-Jul-09 04:30N 45°30' E 013°15'3 6.5
2019-Jul-09 04:00N 45°30' E 013°10'1 1.2
2019-Jul-09 03:30N 45°31' E 013°10'3 6.3
2019-Jul-09 03:00N 45°28' E 013°09'3 5.9
2019-Jul-09 02:30N 45°25' E 013°06'4 7.4
2019-Jul-09 02:00N 45°22' E 013°07'4 7.7
2019-Jul-09 01:30N 45°18' E 013°09'4 7.5
2019-Jul-09 01:00N 45°14' E 013°10'4 7.3
2019-Jul-09 00:30N 45°10' E 013°11'3 6.4
2019-Jul-08 23:58N 45°07' E 013°09'3 6.8
2019-Jul-08 23:30N 45°05' E 013°05'4 7.3
2019-Jul-08 22:59N 45°08' E 013°02'4 7.5
2019-Jul-08 22:30N 45°11' E 013°00'4 8.1
2019-Jul-08 22:00N 45°15' E 012°60'4 8.1
2019-Jul-08 21:30N 45°20' E 012°60'4 8.2
2019-Jul-08 21:00N 45°24' E 013°00'3 5.6
2019-Jul-08 20:30N 45°26' E 012°58'4 7.0
2019-Jul-08 20:00N 45°25' E 012°53'3 6.4
2019-Jul-08 19:30N 45°24' E 012°49'3 7.0
2019-Jul-08 19:00N 45°23' E 012°44'3 7.0
2019-Jul-08 18:30N 45°22' E 012°39'3 6.8
2019-Jul-08 18:00N 45°22' E 012°34'3 6.4
2019-Jul-08 17:30N 45°23' E 012°30'3 6.9
2019-Jul-08 17:00N 45°25' E 012°26'3 5.7
2019-Jul-08 16:30N 45°25' E 012°22'2 4.4
2019-Jul-08 16:00N 45°26' E 012°19'0 0.0
2019-Jul-08 07:25N 45°26' E 012°19'0 0.0
2019-Jul-08 06:55N 45°26' E 012°19'0 0.0
2019-Jul-08 06:28N 45°26' E 012°19'0 0.0
2019-Jul-08 05:58N 45°26' E 012°19'0 0.0
2019-Jul-08 05:28N 45°26' E 012°19'0 0.0
2019-Jul-08 04:58N 45°26' E 012°19'0 0.0
2019-Jul-08 04:28N 45°26' E 012°19'0 0.1
2019-Jul-08 04:00N 45°26' E 012°19'1 1.8
2019-Jul-08 03:30N 45°26' E 012°20'2 3.8
2019-Jul-08 03:00N 45°26' E 012°23'3 6.9
2019-Jul-08 02:30N 45°25' E 012°27'2 4.9
2019-Jul-08 02:00N 45°24' E 012°31'1 2.3
2019-Jul-08 01:30N 45°23' E 012°32'3 5.7
2019-Jul-08 01:00N 45°21' E 012°32'4 7.5
2019-Jul-08 00:30N 45°17' E 012°32'4 7.8
2019-Jul-08 00:00N 45°14' E 012°36'4 7.9
2019-Jul-07 23:30N 45°12' E 012°41'2 3.6
2019-Jul-07 23:01N 45°11' E 012°43'4 8.2
2019-Jul-07 22:30N 45°08' E 012°47'4 8.1
2019-Jul-07 22:00N 45°04' E 012°50'4 8.1
2019-Jul-07 21:30N 45°01' E 012°52'4 7.5
2019-Jul-07 21:00N 44°57' E 012°52'4 8.1
2019-Jul-07 20:29N 44°53' E 012°48'9 7.7
2019-Jul-07 19:18N 44°46' E 012°40'2 7.7
2019-Jul-07 19:00N 44°45' E 012°38'4 8.4
2019-Jul-07 18:30N 44°42' E 012°34'14 6.9
2019-Jul-07 16:29N 44°30' E 012°23'24 1.6
2019-Jul-07 01:20N 44°24' E 012°56'3 7.4
2019-Jul-07 01:00N 44°23' E 012°59'6 7.1
2019-Jul-07 00:07N 44°20' E 013°07'8 6.9
2019-Jul-06 22:59N 44°16' E 013°16'10 7.5
2019-Jul-06 21:40N 44°10' E 013°27'1 7.9
2019-Jul-06 21:29N 44°09' E 013°28'8 8.0
2019-Jul-06 20:31N 44°04' E 013°37'0 7.9
2019-Jul-06 20:27N 44°04' E 013°37'5 7.8
2019-Jul-06 19:49N 44°01' E 013°43'7 8.0
2019-Jul-06 18:54N 43°56' E 013°51'4 9.4
2019-Jul-06 18:29N 43°53' E 013°49'5 9.8
2019-Jul-06 18:00N 43°49' E 013°46'6 9.8
2019-Jul-06 17:25N 43°44' E 013°42'5 9.4
2019-Jul-06 16:52N 43°40' E 013°36'3 9.1
2019-Jul-06 16:30N 43°39' E 013°32'2 4.8
2019-Jul-06 16:00N 43°37' E 013°30'4 0.3
2019-Jul-06 04:36N 43°40' E 013°33'8 3.6
2019-Jul-06 02:28N 43°46' E 013°40'1 0.8
2019-Jul-06 01:11N 43°47' E 013°39'1 2.6
2019-Jul-06 00:54N 43°47' E 013°40'3 7.4
2019-Jul-06 00:30N 43°48' E 013°44'7 7.2
2019-Jul-05 23:29N 43°53' E 013°51'6 7.1
2019-Jul-05 22:43N 43°58' E 013°56'4 6.7
2019-Jul-05 22:08N 44°00' E 013°59'1 6.7
2019-Jul-05 22:00N 44°01' E 014°00'4 6.7
2019-Jul-05 21:29N 44°03' E 014°04'6 7.2
2019-Jul-05 20:37N 44°07' E 014°11'3 7.0
2019-Jul-05 20:14N 44°10' E 014°09'9 7.3
2019-Jul-05 18:59N 44°18' E 014°04'4 7.2
2019-Jul-05 18:27N 44°21' E 014°01'3 7.3
2019-Jul-05 18:00N 44°24' E 013°60'4 7.3
2019-Jul-05 17:30N 44°28' E 013°58'4 7.3
2019-Jul-05 17:00N 44°31' E 013°55'4 7.4
2019-Jul-05 16:30N 44°35' E 013°53'4 7.6
2019-Jul-05 16:00N 44°38' E 013°51'4 7.6
2019-Jul-05 15:30N 44°41' E 013°49'1 1.8
2019-Jul-05 15:00N 44°42' E 013°48'2 3.4
2019-Jul-05 14:30N 44°43' E 013°47'2 3.5
2019-Jul-05 14:00N 44°45' E 013°45'2 3.4
2019-Jul-05 13:30N 44°46' E 013°44'2 3.3
2019-Jul-05 13:00N 44°47' E 013°42'2 4.5
2019-Jul-05 12:30N 44°49' E 013°42'5 9.4
2019-Jul-05 12:00N 44°53' E 013°47'3 5.6
2019-Jul-05 11:30N 44°53' E 013°51'0 0.5
2019-Jul-05 10:55N 44°52' E 013°51'0 0.0
2019-Jul-05 10:25N 44°52' E 013°51'0 0.0
2019-Jul-05 09:49N 44°52' E 013°51'0 0.0
2019-Jul-05 09:19N 44°52' E 013°51'0 0.0
2019-Jul-05 08:55N 44°52' E 013°51'0 0.0
2019-Jul-05 08:25N 44°52' E 013°51'0 0.0
2019-Jul-05 07:55N 44°52' E 013°51'0 0.0
2019-Jul-05 07:25N 44°52' E 013°51'0 0.0
2019-Jul-05 06:55N 44°52' E 013°51'0 0.0
2019-Jul-05 06:30N 44°52' E 013°51'1 1.2
2019-Jul-05 06:00N 44°52' E 013°50'3 5.7
2019-Jul-05 05:30N 44°53' E 013°46'4 7.4
2019-Jul-05 05:00N 44°51' E 013°42'4 7.3
2019-Jul-05 04:30N 44°49' E 013°38'3 5.5
2019-Jul-05 04:01N 44°46' E 013°39'4 7.3
2019-Jul-05 03:31N 44°43' E 013°42'4 7.4
2019-Jul-05 02:58N 44°40' E 013°46'7 7.1
2019-Jul-05 01:58N 44°35' E 013°53'3 6.9
2019-Jul-05 01:30N 44°33' E 013°57'3 6.8
2019-Jul-05 01:00N 44°31' E 014°01'6 6.8
2019-Jul-05 00:04N 44°28' E 014°08'1 7.0
2019-Jul-04 23:59N 44°28' E 014°09'  
2019-Jul-02 09:58N 43°14' E 016°16'15 2.9
2019-Jul-02 04:45N 43°00' E 016°23'  

Dump ship's entire track history